sensor_id;sensor_type;location;lat;lon;timestamp;temperature;humidity
4306;DHT22;2166;49.926;8.608;2023-03-15T00:01:02;3.60;80.10
4306;DHT22;2166;49.926;8.608;2023-03-15T00:03:32;3.50;80.20
4306;DHT22;2166;49.926;8.608;2023-03-15T00:06:03;3.40;80.30
4306;DHT22;2166;49.926;8.608;2023-03-15T00:08:32;3.20;80.40
4306;DHT22;2166;49.926;8.608;2023-03-15T00:11:00;3.10;80.50
4306;DHT22;2166;49.926;8.608;2023-03-15T00:13:28;3.00;80.50
4306;DHT22;2166;49.926;8.608;2023-03-15T00:15:57;3.00;80.50
4306;DHT22;2166;49.926;8.608;2023-03-15T00:18:26;2.90;80.50
4306;DHT22;2166;49.926;8.608;2023-03-15T00:20:56;2.70;80.40
4306;DHT22;2166;49.926;8.608;2023-03-15T00:23:24;2.60;80.60
4306;DHT22;2166;49.926;8.608;2023-03-15T00:25:53;2.50;80.60
4306;DHT22;2166;49.926;8.608;2023-03-15T00:28:21;2.40;80.80
4306;DHT22;2166;49.926;8.608;2023-03-15T00:31:01;2.40;81.00
4306;DHT22;2166;49.926;8.608;2023-03-15T00:33:30;2.30;81.00
4306;DHT22;2166;49.926;8.608;2023-03-15T00:36:03;2.20;81.20
4306;DHT22;2166;49.926;8.608;2023-03-15T00:38:32;2.10;81.30
4306;DHT22;2166;49.926;8.608;2023-03-15T00:41:03;2.10;81.40
4306;DHT22;2166;49.926;8.608;2023-03-15T00:43:33;2.00;81.60
4306;DHT22;2166;49.926;8.608;2023-03-15T00:46:02;2.00;81.50
4306;DHT22;2166;49.926;8.608;2023-03-15T00:48:30;1.90;81.50
4306;DHT22;2166;49.926;8.608;2023-03-15T00:51:17;1.90;81.60
4306;DHT22;2166;49.926;8.608;2023-03-15T00:53:47;1.80;81.70
4306;DHT22;2166;49.926;8.608;2023-03-15T00:56:17;1.80;81.70
4306;DHT22;2166;49.926;8.608;2023-03-15T00:58:45;1.80;81.80
4306;DHT22;2166;49.926;8.608;2023-03-15T01:01:14;1.70;81.80
4306;DHT22;2166;49.926;8.608;2023-03-15T01:03:43;1.70;81.80
4306;DHT22;2166;49.926;8.608;2023-03-15T01:06:13;1.60;81.80
4306;DHT22;2166;49.926;8.608;2023-03-15T01:08:43;1.60;81.80
4306;DHT22;2166;49.926;8.608;2023-03-15T01:11:12;1.60;81.90
4306;DHT22;2166;49.926;8.608;2023-03-15T01:13:41;1.60;82.00
4306;DHT22;2166;49.926;8.608;2023-03-15T01:16:10;1.60;81.90
4306;DHT22;2166;49.926;8.608;2023-03-15T01:18:41;1.60;81.90
4306;DHT22;2166;49.926;8.608;2023-03-15T01:21:14;1.50;81.80
4306;DHT22;2166;49.926;8.608;2023-03-15T01:23:45;1.50;81.80
4306;DHT22;2166;49.926;8.608;2023-03-15T01:26:14;1.50;81.80
4306;DHT22;2166;49.926;8.608;2023-03-15T01:28:42;1.40;81.80
4306;DHT22;2166;49.926;8.608;2023-03-15T01:31:12;1.40;81.70
4306;DHT22;2166;49.926;8.608;2023-03-15T01:33:43;1.40;81.80
4306;DHT22;2166;49.926;8.608;2023-03-15T01:36:13;1.30;82.00
4306;DHT22;2166;49.926;8.608;2023-03-15T01:38:42;1.30;82.00
4306;DHT22;2166;49.926;8.608;2023-03-15T01:41:11;1.30;82.00
4306;DHT22;2166;49.926;8.608;2023-03-15T01:43:41;1.30;82.10
4306;DHT22;2166;49.926;8.608;2023-03-15T01:46:16;1.20;82.10
4306;DHT22;2166;49.926;8.608;2023-03-15T01:48:53;1.10;82.10
4306;DHT22;2166;49.926;8.608;2023-03-15T01:51:29;1.10;82.20
4306;DHT22;2166;49.926;8.608;2023-03-15T01:54:01;1.10;82.20
4306;DHT22;2166;49.926;8.608;2023-03-15T01:56:32;1.00;82.20
4306;DHT22;2166;49.926;8.608;2023-03-15T01:59:01;1.00;82.30
4306;DHT22;2166;49.926;8.608;2023-03-15T02:01:30;1.00;82.30
4306;DHT22;2166;49.926;8.608;2023-03-15T02:04:01;1.00;82.40
4306;DHT22;2166;49.926;8.608;2023-03-15T02:06:35;1.00;82.50
4306;DHT22;2166;49.926;8.608;2023-03-15T02:09:05;1.00;82.50
4306;DHT22;2166;49.926;8.608;2023-03-15T02:11:38;1.00;82.50
4306;DHT22;2166;49.926;8.608;2023-03-15T02:14:08;1.00;82.50
4306;DHT22;2166;49.926;8.608;2023-03-15T02:16:40;1.00;82.40
4306;DHT22;2166;49.926;8.608;2023-03-15T02:19:17;1.00;82.40
4306;DHT22;2166;49.926;8.608;2023-03-15T02:21:51;1.00;82.40
4306;DHT22;2166;49.926;8.608;2023-03-15T02:24:24;1.00;82.50
4306;DHT22;2166;49.926;8.608;2023-03-15T02:26:56;1.00;82.40
4306;DHT22;2166;49.926;8.608;2023-03-15T02:29:26;1.00;82.40
4306;DHT22;2166;49.926;8.608;2023-03-15T02:31:56;0.90;82.40
4306;DHT22;2166;49.926;8.608;2023-03-15T02:34:25;0.90;82.40
4306;DHT22;2166;49.926;8.608;2023-03-15T02:36:53;1.00;82.60
4306;DHT22;2166;49.926;8.608;2023-03-15T02:39:26;0.90;82.40
4306;DHT22;2166;49.926;8.608;2023-03-15T02:41:55;0.90;82.60
4306;DHT22;2166;49.926;8.608;2023-03-15T02:44:29;0.90;82.40
4306;DHT22;2166;49.926;8.608;2023-03-15T02:47:00;0.90;82.40
4306;DHT22;2166;49.926;8.608;2023-03-15T02:49:31;0.80;82.40
4306;DHT22;2166;49.926;8.608;2023-03-15T02:52:02;0.80;82.30
4306;DHT22;2166;49.926;8.608;2023-03-15T02:54:31;0.80;82.30
4306;DHT22;2166;49.926;8.608;2023-03-15T02:57:00;0.80;82.40
4306;DHT22;2166;49.926;8.608;2023-03-15T02:59:31;0.80;82.40
4306;DHT22;2166;49.926;8.608;2023-03-15T03:01:59;0.80;82.40
4306;DHT22;2166;49.926;8.608;2023-03-15T03:04:28;0.80;82.40
4306;DHT22;2166;49.926;8.608;2023-03-15T03:06:56;0.70;82.30
4306;DHT22;2166;49.926;8.608;2023-03-15T03:09:32;0.60;82.30
4306;DHT22;2166;49.926;8.608;2023-03-15T03:12:01;0.50;82.20
4306;DHT22;2166;49.926;8.608;2023-03-15T03:14:33;0.50;82.30
4306;DHT22;2166;49.926;8.608;2023-03-15T03:17:06;0.50;82.40
4306;DHT22;2166;49.926;8.608;2023-03-15T03:19:35;0.50;82.40
4306;DHT22;2166;49.926;8.608;2023-03-15T03:22:03;0.50;82.50
4306;DHT22;2166;49.926;8.608;2023-03-15T03:24:31;0.50;82.50
4306;DHT22;2166;49.926;8.608;2023-03-15T03:26:59;0.40;82.40
4306;DHT22;2166;49.926;8.608;2023-03-15T03:29:33;0.40;82.50
4306;DHT22;2166;49.926;8.608;2023-03-15T03:32:03;0.40;82.50
4306;DHT22;2166;49.926;8.608;2023-03-15T03:34:31;0.30;82.70
4306;DHT22;2166;49.926;8.608;2023-03-15T03:37:01;0.30;82.70
4306;DHT22;2166;49.926;8.608;2023-03-15T03:39:48;0.20;82.80
4306;DHT22;2166;49.926;8.608;2023-03-15T03:42:17;0.20;82.80
4306;DHT22;2166;49.926;8.608;2023-03-15T03:44:47;0.20;82.90
4306;DHT22;2166;49.926;8.608;2023-03-15T03:47:17;0.20;83.00
4306;DHT22;2166;49.926;8.608;2023-03-15T03:49:45;0.10;83.00
4306;DHT22;2166;49.926;8.608;2023-03-15T03:52:15;0.10;83.00
4306;DHT22;2166;49.926;8.608;2023-03-15T03:54:44;0.10;83.00
4306;DHT22;2166;49.926;8.608;2023-03-15T03:57:12;0.10;83.00
4306;DHT22;2166;49.926;8.608;2023-03-15T03:59:40;0.20;83.10
4306;DHT22;2166;49.926;8.608;2023-03-15T04:02:11;0.20;83.10
4306;DHT22;2166;49.926;8.608;2023-03-15T04:04:46;0.20;83.10
4306;DHT22;2166;49.926;8.608;2023-03-15T04:07:19;0.20;83.10
4306;DHT22;2166;49.926;8.608;2023-03-15T04:09:48;0.20;83.10
4306;DHT22;2166;49.926;8.608;2023-03-15T04:12:17;0.20;83.00
4306;DHT22;2166;49.926;8.608;2023-03-15T04:14:46;0.20;83.00
4306;DHT22;2166;49.926;8.608;2023-03-15T04:17:18;0.20;83.10
4306;DHT22;2166;49.926;8.608;2023-03-15T04:19:48;0.10;83.10
4306;DHT22;2166;49.926;8.608;2023-03-15T04:22:23;0.10;83.10
4306;DHT22;2166;49.926;8.608;2023-03-15T04:25:15;0.10;83.10
4306;DHT22;2166;49.926;8.608;2023-03-15T04:27:54;0.10;83.10
4306;DHT22;2166;49.926;8.608;2023-03-15T04:30:46;0.10;83.20
4306;DHT22;2166;49.926;8.608;2023-03-15T04:33:36;0.20;83.20
4306;DHT22;2166;49.926;8.608;2023-03-15T04:36:16;0.20;83.20
4306;DHT22;2166;49.926;8.608;2023-03-15T04:39:20;0.30;83.20
4306;DHT22;2166;49.926;8.608;2023-03-15T04:42:27;0.30;83.10
4306;DHT22;2166;49.926;8.608;2023-03-15T04:45:25;0.30;83.10
4306;DHT22;2166;49.926;8.608;2023-03-15T04:48:09;0.30;83.10
4306;DHT22;2166;49.926;8.608;2023-03-15T04:50:47;0.30;83.00
4306;DHT22;2166;49.926;8.608;2023-03-15T04:53:15;0.20;83.00
4306;DHT22;2166;49.926;8.608;2023-03-15T04:55:50;0.20;83.00
4306;DHT22;2166;49.926;8.608;2023-03-15T04:58:47;0.20;83.00
4306;DHT22;2166;49.926;8.608;2023-03-15T05:01:48;0.30;83.10
4306;DHT22;2166;49.926;8.608;2023-03-15T05:04:39;0.40;83.00
4306;DHT22;2166;49.926;8.608;2023-03-15T05:07:38;0.50;83.00
4306;DHT22;2166;49.926;8.608;2023-03-15T05:10:22;0.60;83.00
4306;DHT22;2166;49.926;8.608;2023-03-15T05:13:14;0.70;82.90
4306;DHT22;2166;49.926;8.608;2023-03-15T05:15:58;0.80;82.90
4306;DHT22;2166;49.926;8.608;2023-03-15T05:18:41;0.90;82.80
4306;DHT22;2166;49.926;8.608;2023-03-15T05:21:30;0.90;82.70
4306;DHT22;2166;49.926;8.608;2023-03-15T05:24:14;1.00;82.60
4306;DHT22;2166;49.926;8.608;2023-03-15T05:27:06;1.00;82.50
4306;DHT22;2166;49.926;8.608;2023-03-15T05:29:35;1.00;82.50
4306;DHT22;2166;49.926;8.608;2023-03-15T05:32:15;1.10;82.50
4306;DHT22;2166;49.926;8.608;2023-03-15T05:34:59;1.10;82.40
4306;DHT22;2166;49.926;8.608;2023-03-15T05:37:58;1.20;82.40
4306;DHT22;2166;49.926;8.608;2023-03-15T05:40:37;1.20;82.40
4306;DHT22;2166;49.926;8.608;2023-03-15T05:43:26;1.30;82.40
4306;DHT22;2166;49.926;8.608;2023-03-15T05:46:13;1.40;82.20
4306;DHT22;2166;49.926;8.608;2023-03-15T05:49:08;1.40;82.00
4306;DHT22;2166;49.926;8.608;2023-03-15T05:51:54;1.50;81.90
4306;DHT22;2166;49.926;8.608;2023-03-15T05:54:25;1.60;81.80
4306;DHT22;2166;49.926;8.608;2023-03-15T05:57:05;1.60;81.80
4306;DHT22;2166;49.926;8.608;2023-03-15T05:59:53;1.80;81.80
4306;DHT22;2166;49.926;8.608;2023-03-15T06:02:39;1.80;81.60
4306;DHT22;2166;49.926;8.608;2023-03-15T06:05:21;1.80;81.60
4306;DHT22;2166;49.926;8.608;2023-03-15T06:07:50;1.80;81.60
4306;DHT22;2166;49.926;8.608;2023-03-15T06:10:19;1.90;81.50
4306;DHT22;2166;49.926;8.608;2023-03-15T06:12:52;1.90;81.40
4306;DHT22;2166;49.926;8.608;2023-03-15T06:15:21;2.00;81.40
4306;DHT22;2166;49.926;8.608;2023-03-15T06:17:51;2.00;81.40
4306;DHT22;2166;49.926;8.608;2023-03-15T06:20:20;2.00;81.40
4306;DHT22;2166;49.926;8.608;2023-03-15T06:22:48;2.10;81.40
4306;DHT22;2166;49.926;8.608;2023-03-15T06:25:30;2.10;81.30
4306;DHT22;2166;49.926;8.608;2023-03-15T06:28:00;2.10;81.30
4306;DHT22;2166;49.926;8.608;2023-03-15T06:30:28;2.00;81.30
4306;DHT22;2166;49.926;8.608;2023-03-15T06:32:59;2.00;81.40
4306;DHT22;2166;49.926;8.608;2023-03-15T06:35:29;2.00;81.30
4306;DHT22;2166;49.926;8.608;2023-03-15T06:37:58;2.00;81.40
4306;DHT22;2166;49.926;8.608;2023-03-15T06:40:26;2.00;81.50
4306;DHT22;2166;49.926;8.608;2023-03-15T06:42:55;1.90;81.50
4306;DHT22;2166;49.926;8.608;2023-03-15T06:45:26;1.80;81.70
4306;DHT22;2166;49.926;8.608;2023-03-15T06:47:57;1.80;81.90
4306;DHT22;2166;49.926;8.608;2023-03-15T06:50:25;1.80;82.00
4306;DHT22;2166;49.926;8.608;2023-03-15T06:53:10;1.80;82.00
4306;DHT22;2166;49.926;8.608;2023-03-15T06:55:39;1.80;82.00
4306;DHT22;2166;49.926;8.608;2023-03-15T06:58:08;1.80;82.00
4306;DHT22;2166;49.926;8.608;2023-03-15T07:00:38;1.80;82.10
4306;DHT22;2166;49.926;8.608;2023-03-15T07:03:07;1.80;82.10
4306;DHT22;2166;49.926;8.608;2023-03-15T07:05:36;1.80;82.10
4306;DHT22;2166;49.926;8.608;2023-03-15T07:08:05;1.80;82.10
4306;DHT22;2166;49.926;8.608;2023-03-15T07:10:33;1.80;82.10
4306;DHT22;2166;49.926;8.608;2023-03-15T07:13:03;1.80;82.20
4306;DHT22;2166;49.926;8.608;2023-03-15T07:15:34;1.80;82.20
4306;DHT22;2166;49.926;8.608;2023-03-15T07:18:04;2.00;82.10
4306;DHT22;2166;49.926;8.608;2023-03-15T07:20:33;2.10;82.10
4306;DHT22;2166;49.926;8.608;2023-03-15T07:23:03;2.10;82.10
4306;DHT22;2166;49.926;8.608;2023-03-15T07:25:32;2.20;82.00
4306;DHT22;2166;49.926;8.608;2023-03-15T07:28:17;2.20;81.90
4306;DHT22;2166;49.926;8.608;2023-03-15T07:30:51;2.30;82.00
4306;DHT22;2166;49.926;8.608;2023-03-15T07:33:22;2.30;81.70
4306;DHT22;2166;49.926;8.608;2023-03-15T07:35:51;2.40;81.70
4306;DHT22;2166;49.926;8.608;2023-03-15T07:38:20;2.70;81.70
4306;DHT22;2166;49.926;8.608;2023-03-15T07:40:48;3.00;81.40
4306;DHT22;2166;49.926;8.608;2023-03-15T07:43:17;3.40;81.10
4306;DHT22;2166;49.926;8.608;2023-03-15T07:45:48;3.70;80.90
4306;DHT22;2166;49.926;8.608;2023-03-15T07:48:17;3.70;80.00
4306;DHT22;2166;49.926;8.608;2023-03-15T07:50:48;3.80;80.10
4306;DHT22;2166;49.926;8.608;2023-03-15T07:53:16;4.00;79.90
4306;DHT22;2166;49.926;8.608;2023-03-15T07:55:45;4.10;80.10
4306;DHT22;2166;49.926;8.608;2023-03-15T07:58:14;4.10;79.70
4306;DHT22;2166;49.926;8.608;2023-03-15T08:00:46;4.00;79.40
4306;DHT22;2166;49.926;8.608;2023-03-15T08:03:14;3.90;79.60
4306;DHT22;2166;49.926;8.608;2023-03-15T08:05:43;3.90;79.50
4306;DHT22;2166;49.926;8.608;2023-03-15T08:08:12;4.10;79.90
4306;DHT22;2166;49.926;8.608;2023-03-15T08:10:41;4.40;79.90
4306;DHT22;2166;49.926;8.608;2023-03-15T08:13:10;4.50;79.70
4306;DHT22;2166;49.926;8.608;2023-03-15T08:15:38;4.60;79.40
4306;DHT22;2166;49.926;8.608;2023-03-15T08:18:06;4.40;79.00
4306;DHT22;2166;49.926;8.608;2023-03-15T08:20:35;4.20;79.40
4306;DHT22;2166;49.926;8.608;2023-03-15T08:23:03;4.10;79.60
4306;DHT22;2166;49.926;8.608;2023-03-15T08:25:33;4.00;79.90
4306;DHT22;2166;49.926;8.608;2023-03-15T08:28:02;3.90;80.00
4306;DHT22;2166;49.926;8.608;2023-03-15T08:30:30;4.00;80.20
4306;DHT22;2166;49.926;8.608;2023-03-15T08:32:59;3.90;80.00
4306;DHT22;2166;49.926;8.608;2023-03-15T08:35:27;3.60;80.10
4306;DHT22;2166;49.926;8.608;2023-03-15T08:37:57;3.40;80.70
4306;DHT22;2166;49.926;8.608;2023-03-15T08:40:25;3.30;81.00
4306;DHT22;2166;49.926;8.608;2023-03-15T08:42:55;3.30;81.00
4306;DHT22;2166;49.926;8.608;2023-03-15T08:45:23;3.20;80.80
4306;DHT22;2166;49.926;8.608;2023-03-15T08:47:56;3.20;81.00
4306;DHT22;2166;49.926;8.608;2023-03-15T08:50:27;3.20;81.10
4306;DHT22;2166;49.926;8.608;2023-03-15T08:52:57;3.10;81.00
4306;DHT22;2166;49.926;8.608;2023-03-15T08:55:26;3.00;81.10
4306;DHT22;2166;49.926;8.608;2023-03-15T08:57:58;3.00;81.20
4306;DHT22;2166;49.926;8.608;2023-03-15T09:00:29;3.00;81.20
4306;DHT22;2166;49.926;8.608;2023-03-15T09:02:58;3.10;81.30
4306;DHT22;2166;49.926;8.608;2023-03-15T09:05:27;3.20;81.30
4306;DHT22;2166;49.926;8.608;2023-03-15T09:07:55;3.30;81.30
4306;DHT22;2166;49.926;8.608;2023-03-15T09:10:26;3.40;81.40
4306;DHT22;2166;49.926;8.608;2023-03-15T09:12:58;3.50;81.00
4306;DHT22;2166;49.926;8.608;2023-03-15T09:15:26;3.60;81.00
4306;DHT22;2166;49.926;8.608;2023-03-15T09:17:54;3.60;80.90
4306;DHT22;2166;49.926;8.608;2023-03-15T09:20:23;3.60;81.00
4306;DHT22;2166;49.926;8.608;2023-03-15T09:22:54;3.50;80.80
4306;DHT22;2166;49.926;8.608;2023-03-15T09:25:23;3.40;80.90
4306;DHT22;2166;49.926;8.608;2023-03-15T09:27:51;3.40;81.10
4306;DHT22;2166;49.926;8.608;2023-03-15T09:30:21;3.40;81.10
4306;DHT22;2166;49.926;8.608;2023-03-15T09:32:49;3.30;81.30
4306;DHT22;2166;49.926;8.608;2023-03-15T09:35:18;3.50;81.40
4306;DHT22;2166;49.926;8.608;2023-03-15T09:37:46;3.50;81.30
4306;DHT22;2166;49.926;8.608;2023-03-15T09:40:16;3.60;81.20
4306;DHT22;2166;49.926;8.608;2023-03-15T09:42:50;3.60;81.20
4306;DHT22;2166;49.926;8.608;2023-03-15T09:45:25;3.70;81.10
4306;DHT22;2166;49.926;8.608;2023-03-15T09:47:58;3.80;81.30
4306;DHT22;2166;49.926;8.608;2023-03-15T09:50:28;3.90;81.30
4306;DHT22;2166;49.926;8.608;2023-03-15T09:52:58;3.90;81.50
4306;DHT22;2166;49.926;8.608;2023-03-15T09:55:29;3.90;81.20
4306;DHT22;2166;49.926;8.608;2023-03-15T09:57:58;3.80;81.30
4306;DHT22;2166;49.926;8.608;2023-03-15T10:00:34;3.70;81.30
4306;DHT22;2166;49.926;8.608;2023-03-15T10:03:03;3.70;81.50
4306;DHT22;2166;49.926;8.608;2023-03-15T10:05:37;3.60;81.60
4306;DHT22;2166;49.926;8.608;2023-03-15T10:08:09;3.60;81.70
4306;DHT22;2166;49.926;8.608;2023-03-15T10:10:39;3.60;81.70
4306;DHT22;2166;49.926;8.608;2023-03-15T10:16:00;3.60;81.60
4306;DHT22;2166;49.926;8.608;2023-03-15T10:21:26;3.60;81.70
4306;DHT22;2166;49.926;8.608;2023-03-15T10:23:59;3.70;81.80
4306;DHT22;2166;49.926;8.608;2023-03-15T10:26:30;3.60;81.70
4306;DHT22;2166;49.926;8.608;2023-03-15T10:29:00;3.60;81.80
4306;DHT22;2166;49.926;8.608;2023-03-15T10:31:32;3.70;81.90
4306;DHT22;2166;49.926;8.608;2023-03-15T10:34:11;3.80;82.00
4306;DHT22;2166;49.926;8.608;2023-03-15T10:36:43;3.90;81.90
4306;DHT22;2166;49.926;8.608;2023-03-15T10:39:12;4.20;82.00
4306;DHT22;2166;49.926;8.608;2023-03-15T10:41:41;4.50;81.80
4306;DHT22;2166;49.926;8.608;2023-03-15T10:44:11;4.80;81.20
4306;DHT22;2166;49.926;8.608;2023-03-15T10:46:41;5.20;80.90
4306;DHT22;2166;49.926;8.608;2023-03-15T10:49:10;5.70;80.50
4306;DHT22;2166;49.926;8.608;2023-03-15T10:51:39;6.80;79.50
4306;DHT22;2166;49.926;8.608;2023-03-15T10:54:12;8.30;76.60
4306;DHT22;2166;49.926;8.608;2023-03-15T10:56:43;9.60;74.80
4306;DHT22;2166;49.926;8.608;2023-03-15T10:59:13;10.60;74.00
4306;DHT22;2166;49.926;8.608;2023-03-15T11:01:44;11.40;72.40
4306;DHT22;2166;49.926;8.608;2023-03-15T11:04:15;11.60;71.50
4306;DHT22;2166;49.926;8.608;2023-03-15T11:06:45;11.10;71.10
4306;DHT22;2166;49.926;8.608;2023-03-15T11:09:14;9.60;72.30
4306;DHT22;2166;49.926;8.608;2023-03-15T11:11:48;8.50;73.60
4306;DHT22;2166;49.926;8.608;2023-03-15T11:14:17;7.40;74.70
4306;DHT22;2166;49.926;8.608;2023-03-15T11:16:51;6.80;76.30
4306;DHT22;2166;49.926;8.608;2023-03-15T11:19:21;6.50;77.40
4306;DHT22;2166;49.926;8.608;2023-03-15T11:21:49;6.00;77.50
4306;DHT22;2166;49.926;8.608;2023-03-15T11:24:20;5.90;78.10
4306;DHT22;2166;49.926;8.608;2023-03-15T11:26:49;6.30;78.70
4306;DHT22;2166;49.926;8.608;2023-03-15T11:29:22;7.00;77.10
4306;DHT22;2166;49.926;8.608;2023-03-15T11:31:53;7.10;77.00
4306;DHT22;2166;49.926;8.608;2023-03-15T11:34:25;7.10;76.80
4306;DHT22;2166;49.926;8.608;2023-03-15T11:36:55;7.10;76.80
4306;DHT22;2166;49.926;8.608;2023-03-15T11:39:36;7.10;76.90
4306;DHT22;2166;49.926;8.608;2023-03-15T11:42:12;7.10;76.40
4306;DHT22;2166;49.926;8.608;2023-03-15T11:44:43;7.00;76.30
4306;DHT22;2166;49.926;8.608;2023-03-15T11:47:15;6.90;76.20
4306;DHT22;2166;49.926;8.608;2023-03-15T11:49:47;6.80;76.50
4306;DHT22;2166;49.926;8.608;2023-03-15T11:52:17;6.80;76.80
4306;DHT22;2166;49.926;8.608;2023-03-15T11:54:47;6.60;76.90
4306;DHT22;2166;49.926;8.608;2023-03-15T11:57:40;6.30;77.30
4306;DHT22;2166;49.926;8.608;2023-03-15T12:00:17;6.10;77.60
4306;DHT22;2166;49.926;8.608;2023-03-15T12:02:49;6.20;78.20
4306;DHT22;2166;49.926;8.608;2023-03-15T12:08:18;6.70;77.60
4306;DHT22;2166;49.926;8.608;2023-03-15T12:10:47;7.20;77.00
4306;DHT22;2166;49.926;8.608;2023-03-15T12:13:23;7.20;76.20
4306;DHT22;2166;49.926;8.608;2023-03-15T12:15:51;7.30;76.20
4306;DHT22;2166;49.926;8.608;2023-03-15T12:18:25;7.30;76.40
4306;DHT22;2166;49.926;8.608;2023-03-15T12:23:42;7.00;76.30
4306;DHT22;2166;49.926;8.608;2023-03-15T12:26:21;6.90;76.20
4306;DHT22;2166;49.926;8.608;2023-03-15T12:28:51;6.60;76.80
4306;DHT22;2166;49.926;8.608;2023-03-15T12:31:21;6.50;77.20
4306;DHT22;2166;49.926;8.608;2023-03-15T12:33:52;6.40;77.20
4306;DHT22;2166;49.926;8.608;2023-03-15T12:36:28;6.30;77.10
4306;DHT22;2166;49.926;8.608;2023-03-15T12:39:00;6.20;77.50
4306;DHT22;2166;49.926;8.608;2023-03-15T12:41:34;6.20;77.80
4306;DHT22;2166;49.926;8.608;2023-03-15T12:44:23;6.30;78.00
4306;DHT22;2166;49.926;8.608;2023-03-15T12:46:54;6.70;77.70
4306;DHT22;2166;49.926;8.608;2023-03-15T12:49:32;7.00;76.50
4306;DHT22;2166;49.926;8.608;2023-03-15T12:52:02;6.90;76.20
4306;DHT22;2166;49.926;8.608;2023-03-15T12:54:33;6.70;76.20
4306;DHT22;2166;49.926;8.608;2023-03-15T12:57:05;6.60;76.70
4306;DHT22;2166;49.926;8.608;2023-03-15T12:59:41;6.60;77.20
4306;DHT22;2166;49.926;8.608;2023-03-15T13:02:23;6.60;77.40
4306;DHT22;2166;49.926;8.608;2023-03-15T13:05:16;6.70;77.20
4306;DHT22;2166;49.926;8.608;2023-03-15T13:08:06;7.10;76.80
4306;DHT22;2166;49.926;8.608;2023-03-15T13:10:39;7.70;76.80
4306;DHT22;2166;49.926;8.608;2023-03-15T13:16:16;8.20;75.40
4306;DHT22;2166;49.926;8.608;2023-03-15T13:18:54;8.20;75.80
4306;DHT22;2166;49.926;8.608;2023-03-15T13:21:58;8.70;74.70
4306;DHT22;2166;49.926;8.608;2023-03-15T13:24:34;10.20;73.40
4306;DHT22;2166;49.926;8.608;2023-03-15T13:33:01;13.40;64.50
4306;DHT22;2166;49.926;8.608;2023-03-15T13:35:30;14.30;61.20
4306;DHT22;2166;49.926;8.608;2023-03-15T13:38:25;15.50;57.40
4306;DHT22;2166;49.926;8.608;2023-03-15T13:40:54;16.60;53.80
4306;DHT22;2166;49.926;8.608;2023-03-15T13:43:25;16.80;52.30
4306;DHT22;2166;49.926;8.608;2023-03-15T13:45:56;16.10;51.70
4306;DHT22;2166;49.926;8.608;2023-03-15T13:48:29;15.60;54.60
4306;DHT22;2166;49.926;8.608;2023-03-15T13:51:01;15.20;59.20
4306;DHT22;2166;49.926;8.608;2023-03-15T13:53:35;15.00;59.70
4306;DHT22;2166;49.926;8.608;2023-03-15T13:56:17;15.00;56.10
4306;DHT22;2166;49.926;8.608;2023-03-15T13:58:45;15.30;58.70
4306;DHT22;2166;49.926;8.608;2023-03-15T14:01:19;16.40;55.00
4306;DHT22;2166;49.926;8.608;2023-03-15T14:04:07;17.90;50.30
4306;DHT22;2166;49.926;8.608;2023-03-15T14:06:40;18.00;50.00
4306;DHT22;2166;49.926;8.608;2023-03-15T14:09:24;18.20;50.00
4306;DHT22;2166;49.926;8.608;2023-03-15T14:12:01;18.60;48.80
4306;DHT22;2166;49.926;8.608;2023-03-15T14:14:36;18.80;45.30
4306;DHT22;2166;49.926;8.608;2023-03-15T14:17:07;18.20;43.60
4306;DHT22;2166;49.926;8.608;2023-03-15T14:19:38;17.30;43.30
4306;DHT22;2166;49.926;8.608;2023-03-15T14:22:12;16.90;45.40
4306;DHT22;2166;49.926;8.608;2023-03-15T14:24:52;16.50;46.30
4306;DHT22;2166;49.926;8.608;2023-03-15T14:27:30;16.10;44.00
4306;DHT22;2166;49.926;8.608;2023-03-15T14:30:00;16.00;46.30
4306;DHT22;2166;49.926;8.608;2023-03-15T14:32:30;16.20;47.50
4306;DHT22;2166;49.926;8.608;2023-03-15T14:35:00;16.40;45.10
4306;DHT22;2166;49.926;8.608;2023-03-15T14:37:31;16.50;44.70
4306;DHT22;2166;49.926;8.608;2023-03-15T14:42:49;15.60;46.80
4306;DHT22;2166;49.926;8.608;2023-03-15T14:45:18;15.20;47.60
4306;DHT22;2166;49.926;8.608;2023-03-15T14:47:49;14.40;49.60
4306;DHT22;2166;49.926;8.608;2023-03-15T14:50:24;13.70;50.10
4306;DHT22;2166;49.926;8.608;2023-03-15T14:52:53;13.10;51.10
4306;DHT22;2166;49.926;8.608;2023-03-15T14:55:26;12.60;52.10
4306;DHT22;2166;49.926;8.608;2023-03-15T14:57:57;12.10;53.50
4306;DHT22;2166;49.926;8.608;2023-03-15T15:00:27;11.50;55.40
4306;DHT22;2166;49.926;8.608;2023-03-15T15:02:55;11.30;55.10
4306;DHT22;2166;49.926;8.608;2023-03-15T15:05:25;11.80;54.20
4306;DHT22;2166;49.926;8.608;2023-03-15T15:07:56;12.60;54.50
4306;DHT22;2166;49.926;8.608;2023-03-15T15:10:29;12.90;50.60
4306;DHT22;2166;49.926;8.608;2023-03-15T15:12:59;12.70;50.70
4306;DHT22;2166;49.926;8.608;2023-03-15T15:15:33;12.60;52.00
4306;DHT22;2166;49.926;8.608;2023-03-15T15:18:20;12.40;51.50
4306;DHT22;2166;49.926;8.608;2023-03-15T15:20:49;11.70;53.30
4306;DHT22;2166;49.926;8.608;2023-03-15T15:23:22;11.40;53.40
4306;DHT22;2166;49.926;8.608;2023-03-15T15:25:52;11.40;54.50
4306;DHT22;2166;49.926;8.608;2023-03-15T15:28:22;11.90;54.00
4306;DHT22;2166;49.926;8.608;2023-03-15T15:31:01;12.30;53.30
4306;DHT22;2166;49.926;8.608;2023-03-15T15:33:29;12.50;52.20
4306;DHT22;2166;49.926;8.608;2023-03-15T15:35:58;12.70;52.10
4306;DHT22;2166;49.926;8.608;2023-03-15T15:38:28;12.90;49.60
4306;DHT22;2166;49.926;8.608;2023-03-15T15:40:59;13.20;50.30
4306;DHT22;2166;49.926;8.608;2023-03-15T15:43:31;13.10;48.70
4306;DHT22;2166;49.926;8.608;2023-03-15T15:46:00;13.00;48.40
4306;DHT22;2166;49.926;8.608;2023-03-15T15:48:30;12.70;48.60
4306;DHT22;2166;49.926;8.608;2023-03-15T15:50:58;12.60;50.20
4306;DHT22;2166;49.926;8.608;2023-03-15T15:53:26;12.50;50.90
4306;DHT22;2166;49.926;8.608;2023-03-15T15:55:57;12.30;51.90
4306;DHT22;2166;49.926;8.608;2023-03-15T15:58:25;12.50;51.50
4306;DHT22;2166;49.926;8.608;2023-03-15T16:00:56;12.50;51.20
4306;DHT22;2166;49.926;8.608;2023-03-15T16:03:24;12.40;52.20
4306;DHT22;2166;49.926;8.608;2023-03-15T16:05:53;12.10;50.90
4306;DHT22;2166;49.926;8.608;2023-03-15T16:08:22;11.60;52.40
4306;DHT22;2166;49.926;8.608;2023-03-15T16:10:51;11.20;52.60
4306;DHT22;2166;49.926;8.608;2023-03-15T16:13:20;10.80;54.60
4306;DHT22;2166;49.926;8.608;2023-03-15T16:15:48;10.70;54.90
4306;DHT22;2166;49.926;8.608;2023-03-15T16:18:19;10.60;55.30
4306;DHT22;2166;49.926;8.608;2023-03-15T16:20:48;10.40;53.70
4306;DHT22;2166;49.926;8.608;2023-03-15T16:23:17;10.30;54.50
4306;DHT22;2166;49.926;8.608;2023-03-15T16:25:50;10.30;55.70
4306;DHT22;2166;49.926;8.608;2023-03-15T16:28:19;10.40;55.60
4306;DHT22;2166;49.926;8.608;2023-03-15T16:30:47;10.40;55.70
4306;DHT22;2166;49.926;8.608;2023-03-15T16:33:17;10.20;55.80
4306;DHT22;2166;49.926;8.608;2023-03-15T16:35:50;10.20;57.10
4306;DHT22;2166;49.926;8.608;2023-03-15T16:38:20;10.20;56.80
4306;DHT22;2166;49.926;8.608;2023-03-15T16:40:50;10.20;57.10
4306;DHT22;2166;49.926;8.608;2023-03-15T16:43:19;10.00;57.60
4306;DHT22;2166;49.926;8.608;2023-03-15T16:45:47;9.80;56.60
4306;DHT22;2166;49.926;8.608;2023-03-15T16:48:15;9.60;58.60
4306;DHT22;2166;49.926;8.608;2023-03-15T16:50:44;9.40;58.90
4306;DHT22;2166;49.926;8.608;2023-03-15T16:53:15;9.10;59.20
4306;DHT22;2166;49.926;8.608;2023-03-15T16:55:45;8.90;59.90
4306;DHT22;2166;49.926;8.608;2023-03-15T16:58:14;8.70;61.60
4306;DHT22;2166;49.926;8.608;2023-03-15T17:00:43;8.40;60.80
4306;DHT22;2166;49.926;8.608;2023-03-15T17:03:14;8.30;62.40
4306;DHT22;2166;49.926;8.608;2023-03-15T17:05:44;8.10;62.40
4306;DHT22;2166;49.926;8.608;2023-03-15T17:08:16;7.90;63.90
4306;DHT22;2166;49.926;8.608;2023-03-15T17:10:51;7.60;63.10
4306;DHT22;2166;49.926;8.608;2023-03-15T17:13:21;7.40;64.00